Terminal Aerodrome Forecast
Issued by NWS Charleston, WV

Current Version | Previous Version | Graphics & Text | Print | Product List | Glossary On
Versions: 1 2 3 4 5 6 7 8 9 10 11 12 13 14 15 16 17 18 19 20 21 22 23 24
000
FTUS41 KRLX 161421 AAA
TAFPKB
TAF AMD
KPKB 161421Z 1614/1712 33016G25KT 4SM -SHRA SCT009 BKN025 OVC040
      TEMPO 1615/1619 2SM SHRA BR BKN009
     FM161900 33010G17KT P6SM OVC020
     FM162300 34007KT P6SM SCT026
     FM170500 03003KT P6SM FEW035=

USA.gov is the U.S. government's official web portal to all federal, state and local government web resources and services.